sensor_id;sensor_type;location;lat;lon;timestamp;pressure;altitude;pressure_sealevel;temperature;humidity
78229;BME280;74448;49.082;9.152;2024-01-25T00:02:15;100532.22;;;8.77;64.28
78229;BME280;74448;49.082;9.152;2024-01-25T00:04:41;100534.94;;;8.75;64.02
78229;BME280;74448;49.082;9.152;2024-01-25T00:07:08;100523.69;;;8.71;64.09
78229;BME280;74448;49.082;9.152;2024-01-25T00:09:36;100525.25;;;8.76;64.39
78229;BME280;74448;49.082;9.152;2024-01-25T00:12:03;100530.63;;;8.74;64.21
78229;BME280;74448;49.082;9.152;2024-01-25T00:14:30;100519.28;;;8.72;64.31
78229;BME280;74448;49.082;9.152;2024-01-25T00:16:56;100529.06;;;8.70;64.45
78229;BME280;74448;49.082;9.152;2024-01-25T00:19:23;100527.97;;;8.74;64.30
78229;BME280;74448;49.082;9.152;2024-01-25T00:21:49;100527.03;;;8.75;64.42
78229;BME280;74448;49.082;9.152;2024-01-25T00:24:17;100517.56;;;8.71;64.27
78229;BME280;74448;49.082;9.152;2024-01-25T00:26:43;100524.63;;;8.70;64.45
78229;BME280;74448;49.082;9.152;2024-01-25T00:29:10;100523.69;;;8.71;64.64
78229;BME280;74448;49.082;9.152;2024-01-25T00:31:36;100505.41;;;8.68;64.48
78229;BME280;74448;49.082;9.152;2024-01-25T00:34:03;100511.47;;;8.70;64.40
78229;BME280;74448;49.082;9.152;2024-01-25T00:36:31;100513.31;;;8.68;64.44
78229;BME280;74448;49.082;9.152;2024-01-25T00:38:58;100511.59;;;8.67;64.33
78229;BME280;74448;49.082;9.152;2024-01-25T00:41:25;100501.06;;;8.67;64.62
78229;BME280;74448;49.082;9.152;2024-01-25T00:43:51;100495.03;;;8.65;64.39
78229;BME280;74448;49.082;9.152;2024-01-25T00:46:18;100505.47;;;8.67;64.47
78229;BME280;74448;49.082;9.152;2024-01-25T00:48:45;100488.13;;;8.63;64.43
78229;BME280;74448;49.082;9.152;2024-01-25T00:51:20;100503.78;;;8.66;64.69
78229;BME280;74448;49.082;9.152;2024-01-25T00:53:47;100503.78;;;8.66;64.47
78229;BME280;74448;49.082;9.152;2024-01-25T00:56:14;100502.06;;;8.65;64.57
78229;BME280;74448;49.082;9.152;2024-01-25T00:58:41;100489.91;;;8.62;64.40
78229;BME280;74448;49.082;9.152;2024-01-25T01:01:08;100504.63;;;8.66;64.76
78229;BME280;74448;49.082;9.152;2024-01-25T01:03:36;100503.78;;;8.66;64.62
78229;BME280;74448;49.082;9.152;2024-01-25T01:06:04;100489.66;;;8.67;64.49
78229;BME280;74448;49.082;9.152;2024-01-25T01:08:31;100494.31;;;8.62;64.45
78229;BME280;74448;49.082;9.152;2024-01-25T01:10:57;100490.75;;;8.63;64.43
78229;BME280;74448;49.082;9.152;2024-01-25T01:13:24;100497.72;;;8.64;64.21
78229;BME280;74448;49.082;9.152;2024-01-25T01:15:50;100495.09;;;8.64;64.48
78229;BME280;74448;49.082;9.152;2024-01-25T01:18:17;100498.66;;;8.63;64.73
78229;BME280;74448;49.082;9.152;2024-01-25T01:20:44;100513.47;;;8.65;64.55
78229;BME280;74448;49.082;9.152;2024-01-25T01:23:10;100501.22;;;8.64;64.30
78229;BME280;74448;49.082;9.152;2024-01-25T01:25:37;100505.72;;;8.62;64.53
78229;BME280;74448;49.082;9.152;2024-01-25T01:28:04;100508.50;;;8.59;64.21
78229;BME280;74448;49.082;9.152;2024-01-25T01:30:30;100518.03;;;8.62;64.50
78229;BME280;74448;49.082;9.152;2024-01-25T01:32:57;100512.81;;;8.60;64.56
78229;BME280;74448;49.082;9.152;2024-01-25T01:35:24;100519.88;;;8.60;64.57
78229;BME280;74448;49.082;9.152;2024-01-25T01:37:51;100530.44;;;8.60;64.59
78229;BME280;74448;49.082;9.152;2024-01-25T01:40:18;100518.94;;;8.61;64.56
78229;BME280;74448;49.082;9.152;2024-01-25T01:42:44;100516.63;;;8.55;64.91
78229;BME280;74448;49.082;9.152;2024-01-25T01:45:11;100509.44;;;8.58;64.61
78229;BME280;74448;49.082;9.152;2024-01-25T01:47:40;100501.53;;;8.58;64.68
78229;BME280;74448;49.082;9.152;2024-01-25T01:50:07;100504.22;;;8.57;64.66
78229;BME280;74448;49.082;9.152;2024-01-25T01:52:35;100505.09;;;8.57;64.77
78229;BME280;74448;49.082;9.152;2024-01-25T01:55:03;100501.66;;;8.55;64.70
78229;BME280;74448;49.082;9.152;2024-01-25T01:57:29;100509.44;;;8.58;64.77
78229;BME280;74448;49.082;9.152;2024-01-25T01:59:58;100499.13;;;8.54;64.91
78229;BME280;74448;49.082;9.152;2024-01-25T02:02:27;100506.94;;;8.55;64.70
78229;BME280;74448;49.082;9.152;2024-01-25T02:04:53;100510.41;;;8.56;64.72
78229;BME280;74448;49.082;9.152;2024-01-25T02:07:20;100513.19;;;8.53;64.88
78229;BME280;74448;49.082;9.152;2024-01-25T02:09:47;100513.00;;;8.57;64.68
78229;BME280;74448;49.082;9.152;2024-01-25T02:12:15;100521.91;;;8.55;64.50
78229;BME280;74448;49.082;9.152;2024-01-25T02:14:43;100523.69;;;8.54;64.51
78229;BME280;74448;49.082;9.152;2024-01-25T02:17:10;100524.63;;;8.53;65.01
78229;BME280;74448;49.082;9.152;2024-01-25T02:19:37;100516.78;;;8.52;64.80
78229;BME280;74448;49.082;9.152;2024-01-25T02:22:04;100508.88;;;8.52;64.62
78229;BME280;74448;49.082;9.152;2024-01-25T02:24:31;100511.50;;;8.52;64.64
78229;BME280;74448;49.082;9.152;2024-01-25T02:26:58;100510.56;;;8.53;64.76
78229;BME280;74448;49.082;9.152;2024-01-25T02:29:25;100513.19;;;8.53;64.48
78229;BME280;74448;49.082;9.152;2024-01-25T02:31:51;100517.47;;;8.55;64.62
78229;BME280;74448;49.082;9.152;2024-01-25T02:34:18;100521.91;;;8.55;64.71
78229;BME280;74448;49.082;9.152;2024-01-25T02:36:45;100526.47;;;8.51;64.39
78229;BME280;74448;49.082;9.152;2024-01-25T02:39:11;100526.59;;;8.48;64.83
78229;BME280;74448;49.082;9.152;2024-01-25T02:41:38;100528.25;;;8.51;64.55
78229;BME280;74448;49.082;9.152;2024-01-25T02:44:05;100528.38;;;8.47;64.87
78229;BME280;74448;49.082;9.152;2024-01-25T02:46:31;100526.69;;;8.46;64.73
78229;BME280;74448;49.082;9.152;2024-01-25T02:48:58;100519.34;;;8.34;64.86
78229;BME280;74448;49.082;9.152;2024-01-25T02:51:25;100532.91;;;8.45;64.86
78229;BME280;74448;49.082;9.152;2024-01-25T02:53:51;100528.38;;;8.47;64.65
78229;BME280;74448;49.082;9.152;2024-01-25T02:56:18;100532.91;;;8.45;64.76
78229;BME280;74448;49.082;9.152;2024-01-25T02:58:44;100526.78;;;8.45;64.79
78229;BME280;74448;49.082;9.152;2024-01-25T03:01:11;100530.31;;;8.44;64.88
78229;BME280;74448;49.082;9.152;2024-01-25T03:03:38;100528.56;;;8.44;65.02
78229;BME280;74448;49.082;9.152;2024-01-25T03:06:06;100523.34;;;8.43;64.69
78229;BME280;74448;49.082;9.152;2024-01-25T03:08:33;100520.66;;;8.44;64.69
78229;BME280;74448;49.082;9.152;2024-01-25T03:10:59;100518.94;;;8.43;64.85
78229;BME280;74448;49.082;9.152;2024-01-25T03:13:26;100515.38;;;8.44;64.96
78229;BME280;74448;49.082;9.152;2024-01-25T03:15:53;100514.50;;;8.44;64.91
78229;BME280;74448;49.082;9.152;2024-01-25T03:18:19;100520.78;;;8.41;64.82
78229;BME280;74448;49.082;9.152;2024-01-25T03:20:46;100511.97;;;8.42;64.88
78229;BME280;74448;49.082;9.152;2024-01-25T03:23:13;100516.47;;;8.40;64.91
78229;BME280;74448;49.082;9.152;2024-01-25T03:25:40;100519.25;;;8.37;65.17
78229;BME280;74448;49.082;9.152;2024-01-25T03:28:06;100531.38;;;8.40;65.28
78229;BME280;74448;49.082;9.152;2024-01-25T03:30:33;100527.06;;;8.39;65.13
78229;BME280;74448;49.082;9.152;2024-01-25T03:33:00;100516.38;;;8.42;64.74
78229;BME280;74448;49.082;9.152;2024-01-25T03:35:26;100530.41;;;8.42;64.75
78229;BME280;74448;49.082;9.152;2024-01-25T03:37:53;100526.91;;;8.42;65.02
78229;BME280;74448;49.082;9.152;2024-01-25T03:40:20;100535.81;;;8.39;65.07
78229;BME280;74448;49.082;9.152;2024-01-25T03:42:46;100534.09;;;8.38;64.96
78229;BME280;74448;49.082;9.152;2024-01-25T03:45:33;100534.19;;;8.37;65.02
78229;BME280;74448;49.082;9.152;2024-01-25T03:48:00;100534.09;;;8.38;65.02
78229;BME280;74448;49.082;9.152;2024-01-25T03:50:27;100537.59;;;8.39;65.15
78229;BME280;74448;49.082;9.152;2024-01-25T03:52:53;100548.22;;;8.37;64.88
78229;BME280;74448;49.082;9.152;2024-01-25T03:55:20;100545.59;;;8.37;64.87
78229;BME280;74448;49.082;9.152;2024-01-25T03:57:46;100547.13;;;8.41;64.52
78229;BME280;74448;49.082;9.152;2024-01-25T04:00:13;100536.59;;;8.41;64.92
78229;BME280;74448;49.082;9.152;2024-01-25T04:02:40;100543.84;;;8.36;64.80
78229;BME280;74448;49.082;9.152;2024-01-25T04:05:07;100543.84;;;8.36;64.92
78229;BME280;74448;49.082;9.152;2024-01-25T04:07:33;100553.41;;;8.39;64.86
78229;BME280;74448;49.082;9.152;2024-01-25T04:10:00;100562.28;;;8.36;64.70
78229;BME280;74448;49.082;9.152;2024-01-25T04:12:27;100547.69;;;8.29;64.88
78229;BME280;74448;49.082;9.152;2024-01-25T04:14:53;100572.03;;;8.34;64.92
78229;BME280;74448;49.082;9.152;2024-01-25T04:17:20;100566.03;;;8.31;64.73
78229;BME280;74448;49.082;9.152;2024-01-25T04:19:46;100572.03;;;8.34;65.11
78229;BME280;74448;49.082;9.152;2024-01-25T04:22:13;100575.59;;;8.33;65.17
78229;BME280;74448;49.082;9.152;2024-01-25T04:24:40;100580.03;;;8.33;65.13
78229;BME280;74448;49.082;9.152;2024-01-25T04:27:07;100579.00;;;8.35;64.94
78229;BME280;74448;49.082;9.152;2024-01-25T04:29:33;100559.31;;;8.25;65.29
78229;BME280;74448;49.082;9.152;2024-01-25T04:32:00;100577.44;;;8.31;65.37
78229;BME280;74448;49.082;9.152;2024-01-25T04:34:27;100572.16;;;8.31;65.11
78229;BME280;74448;49.082;9.152;2024-01-25T04:36:53;100575.59;;;8.33;64.77
78229;BME280;74448;49.082;9.152;2024-01-25T04:39:20;100571.31;;;8.31;64.87
78229;BME280;74448;49.082;9.152;2024-01-25T04:41:47;100567.84;;;8.30;65.31
78229;BME280;74448;49.082;9.152;2024-01-25T04:44:13;100572.25;;;8.30;65.33
78229;BME280;74448;49.082;9.152;2024-01-25T04:46:41;100579.22;;;8.31;64.91
78229;BME280;74448;49.082;9.152;2024-01-25T04:49:07;100583.63;;;8.30;65.05
78229;BME280;74448;49.082;9.152;2024-01-25T04:51:34;100586.97;;;8.34;65.27
78229;BME280;74448;49.082;9.152;2024-01-25T04:54:01;100589.03;;;8.27;65.08
78229;BME280;74448;49.082;9.152;2024-01-25T04:56:28;100592.47;;;8.29;64.93
78229;BME280;74448;49.082;9.152;2024-01-25T04:58:55;100605.56;;;8.31;65.30
78229;BME280;74448;49.082;9.152;2024-01-25T05:01:22;100603.94;;;8.28;65.00
78229;BME280;74448;49.082;9.152;2024-01-25T05:03:48;100611.75;;;8.30;64.77
78229;BME280;74448;49.082;9.152;2024-01-25T05:06:15;100623.28;;;8.27;65.13
78229;BME280;74448;49.082;9.152;2024-01-25T05:08:42;100630.28;;;8.28;65.01
78229;BME280;74448;49.082;9.152;2024-01-25T05:11:10;100627.78;;;8.25;64.84
78229;BME280;74448;49.082;9.152;2024-01-25T05:13:36;100635.69;;;8.25;64.93
78229;BME280;74448;49.082;9.152;2024-01-25T05:16:03;100627.78;;;8.25;64.85
78229;BME280;74448;49.082;9.152;2024-01-25T05:18:30;100626.84;;;8.26;65.00
78229;BME280;74448;49.082;9.152;2024-01-25T05:20:57;100633.03;;;8.25;65.41
78229;BME280;74448;49.082;9.152;2024-01-25T05:23:24;100629.47;;;8.26;64.84
78229;BME280;74448;49.082;9.152;2024-01-25T05:25:51;100629.47;;;8.26;64.74
78229;BME280;74448;49.082;9.152;2024-01-25T05:28:17;100640.03;;;8.26;64.90
78229;BME280;74448;49.082;9.152;2024-01-25T05:30:44;100640.09;;;8.24;65.18
78229;BME280;74448;49.082;9.152;2024-01-25T05:33:11;100636.63;;;8.24;65.23
78229;BME280;74448;49.082;9.152;2024-01-25T05:35:37;100644.53;;;8.24;65.08
78229;BME280;74448;49.082;9.152;2024-01-25T05:38:04;100648.94;;;8.23;65.11
78229;BME280;74448;49.082;9.152;2024-01-25T05:40:31;100646.31;;;8.23;64.95
78229;BME280;74448;49.082;9.152;2024-01-25T05:42:57;100644.66;;;8.21;65.05
78229;BME280;74448;49.082;9.152;2024-01-25T05:45:24;100643.72;;;8.22;65.40
78229;BME280;74448;49.082;9.152;2024-01-25T05:47:51;100648.06;;;8.23;65.04
78229;BME280;74448;49.082;9.152;2024-01-25T05:50:17;100657.69;;;8.24;65.10
78229;BME280;74448;49.082;9.152;2024-01-25T05:52:44;100642.94;;;8.20;65.22
78229;BME280;74448;49.082;9.152;2024-01-25T05:55:11;100643.00;;;8.18;65.12
78229;BME280;74448;49.082;9.152;2024-01-25T05:57:43;100632.47;;;8.18;64.84
78229;BME280;74448;49.082;9.152;2024-01-25T06:00:12;100629.91;;;8.17;64.94
78229;BME280;74448;49.082;9.152;2024-01-25T06:02:39;100635.19;;;8.17;65.28
78229;BME280;74448;49.082;9.152;2024-01-25T06:05:06;100626.69;;;8.10;65.16
78229;BME280;74448;49.082;9.152;2024-01-25T06:07:34;100644.78;;;8.18;65.44
78229;BME280;74448;49.082;9.152;2024-01-25T06:10:01;100652.69;;;8.18;65.18
78229;BME280;74448;49.082;9.152;2024-01-25T06:12:28;100643.06;;;8.17;65.39
78229;BME280;74448;49.082;9.152;2024-01-25T06:14:55;100647.53;;;8.15;65.35
78229;BME280;74448;49.082;9.152;2024-01-25T06:17:21;100646.66;;;8.16;65.03
78229;BME280;74448;49.082;9.152;2024-01-25T06:19:48;100637.81;;;8.17;64.92
78229;BME280;74448;49.082;9.152;2024-01-25T06:22:14;100640.44;;;8.17;65.09
78229;BME280;74448;49.082;9.152;2024-01-25T06:24:43;100642.28;;;8.15;65.14
78229;BME280;74448;49.082;9.152;2024-01-25T06:27:10;100647.63;;;8.13;65.09
78229;BME280;74448;49.082;9.152;2024-01-25T06:29:36;100649.31;;;8.14;65.21
78229;BME280;74448;49.082;9.152;2024-01-25T06:32:03;100660.78;;;8.13;65.29
78229;BME280;74448;49.082;9.152;2024-01-25T06:34:38;100663.34;;;8.15;65.12
78229;BME280;74448;49.082;9.152;2024-01-25T06:37:05;100671.25;;;8.15;65.10
78229;BME280;74448;49.082;9.152;2024-01-25T06:39:32;100666.16;;;8.12;65.42
78229;BME280;74448;49.082;9.152;2024-01-25T06:41:58;100664.41;;;8.11;65.72
78229;BME280;74448;49.082;9.152;2024-01-25T06:44:25;100674.03;;;8.12;65.18
78229;BME280;74448;49.082;9.152;2024-01-25T06:46:51;100670.59;;;8.10;65.46
78229;BME280;74448;49.082;9.152;2024-01-25T06:49:18;100676.72;;;8.10;65.12
78229;BME280;74448;49.082;9.152;2024-01-25T06:51:45;100687.34;;;8.09;65.01
78229;BME280;74448;49.082;9.152;2024-01-25T06:54:11;100694.44;;;8.07;65.31
78229;BME280;74448;49.082;9.152;2024-01-25T06:56:38;100689.16;;;8.07;65.12
78229;BME280;74448;49.082;9.152;2024-01-25T06:59:05;100690.91;;;8.08;65.20
78229;BME280;74448;49.082;9.152;2024-01-25T07:01:31;100682.34;;;8.03;65.38
78229;BME280;74448;49.082;9.152;2024-01-25T07:03:59;100690.94;;;8.06;65.13
78229;BME280;74448;49.082;9.152;2024-01-25T07:06:27;100693.59;;;8.06;65.60
78229;BME280;74448;49.082;9.152;2024-01-25T07:08:54;100690.25;;;8.03;65.62
78229;BME280;74448;49.082;9.152;2024-01-25T07:11:21;100701.56;;;8.05;65.38
78229;BME280;74448;49.082;9.152;2024-01-25T07:13:47;100706.75;;;8.06;65.44
78229;BME280;74448;49.082;9.152;2024-01-25T07:16:14;100705.91;;;8.06;65.10
78229;BME280;74448;49.082;9.152;2024-01-25T07:18:40;100705.25;;;8.01;64.91
78229;BME280;74448;49.082;9.152;2024-01-25T07:21:07;100710.38;;;8.04;65.28
78229;BME280;74448;49.082;9.152;2024-01-25T07:23:34;100703.41;;;8.03;65.03
78229;BME280;74448;49.082;9.152;2024-01-25T07:26:00;100696.38;;;8.03;65.58
78229;BME280;74448;49.082;9.152;2024-01-25T07:28:27;100692.88;;;8.03;65.47
78229;BME280;74448;49.082;9.152;2024-01-25T07:30:54;100694.59;;;8.04;65.56
78229;BME280;74448;49.082;9.152;2024-01-25T07:33:20;100695.53;;;8.03;65.37
78229;BME280;74448;49.082;9.152;2024-01-25T07:35:47;100694.72;;;8.01;65.09
78229;BME280;74448;49.082;9.152;2024-01-25T07:38:14;100691.16;;;8.02;64.95
78229;BME280;74448;49.082;9.152;2024-01-25T07:40:42;100701.69;;;8.02;65.07
78229;BME280;74448;49.082;9.152;2024-01-25T07:43:08;100689.75;;;7.94;65.45
78229;BME280;74448;49.082;9.152;2024-01-25T07:45:35;100707.81;;;8.02;65.21
78229;BME280;74448;49.082;9.152;2024-01-25T07:48:02;100716.59;;;8.03;65.32
78229;BME280;74448;49.082;9.152;2024-01-25T07:50:40;100712.38;;;7.98;65.50
78229;BME280;74448;49.082;9.152;2024-01-25T07:53:06;100702.75;;;7.97;65.37
78229;BME280;74448;49.082;9.152;2024-01-25T07:55:33;100707.13;;;7.98;65.48
78229;BME280;74448;49.082;9.152;2024-01-25T07:58:00;100702.69;;;7.99;64.93
78229;BME280;74448;49.082;9.152;2024-01-25T08:00:26;100712.38;;;7.98;65.04
78229;BME280;74448;49.082;9.152;2024-01-25T08:02:53;100710.66;;;7.97;64.85
78229;BME280;74448;49.082;9.152;2024-01-25T08:05:20;100706.22;;;7.98;65.17
78229;BME280;74448;49.082;9.152;2024-01-25T08:07:46;100704.47;;;7.98;65.34
78229;BME280;74448;49.082;9.152;2024-01-25T08:10:13;100699.25;;;7.97;65.07
78229;BME280;74448;49.082;9.152;2024-01-25T08:12:40;100698.41;;;7.96;64.91
78229;BME280;74448;49.082;9.152;2024-01-25T08:15:17;100703.75;;;7.95;64.91
78229;BME280;74448;49.082;9.152;2024-01-25T08:17:44;100702.91;;;7.94;65.25
78229;BME280;74448;49.082;9.152;2024-01-25T08:20:11;100708.34;;;7.90;65.33
78229;BME280;74448;49.082;9.152;2024-01-25T08:22:43;100707.28;;;7.94;65.46
78229;BME280;74448;49.082;9.152;2024-01-25T08:25:09;100709.88;;;7.95;65.02
78229;BME280;74448;49.082;9.152;2024-01-25T08:27:37;100702.09;;;7.92;65.12
78229;BME280;74448;49.082;9.152;2024-01-25T08:30:04;100706.44;;;7.93;65.14
78229;BME280;74448;49.082;9.152;2024-01-25T08:32:30;100702.19;;;7.91;65.01
78229;BME280;74448;49.082;9.152;2024-01-25T08:34:57;100702.19;;;7.91;64.91
78229;BME280;74448;49.082;9.152;2024-01-25T08:37:25;100702.09;;;7.92;65.23
78229;BME280;74448;49.082;9.152;2024-01-25T08:39:52;100710.84;;;7.93;64.98
78229;BME280;74448;49.082;9.152;2024-01-25T08:42:19;100698.81;;;7.87;65.55
78229;BME280;74448;49.082;9.152;2024-01-25T08:44:46;100711.84;;;7.90;65.39
78229;BME280;74448;49.082;9.152;2024-01-25T08:47:19;100718.88;;;7.90;64.90
78229;BME280;74448;49.082;9.152;2024-01-25T08:49:45;100721.50;;;7.90;64.98
78229;BME280;74448;49.082;9.152;2024-01-25T08:52:12;100721.56;;;7.88;65.16
78229;BME280;74448;49.082;9.152;2024-01-25T08:54:39;100734.75;;;7.88;65.17
78229;BME280;74448;49.082;9.152;2024-01-25T08:57:06;100732.84;;;7.92;64.96
78229;BME280;74448;49.082;9.152;2024-01-25T08:59:34;100726.84;;;7.88;65.48
78229;BME280;74448;49.082;9.152;2024-01-25T09:02:06;100739.06;;;7.89;65.16
78229;BME280;74448;49.082;9.152;2024-01-25T09:04:33;100736.53;;;7.88;64.94
78229;BME280;74448;49.082;9.152;2024-01-25T09:07:00;100742.56;;;7.90;65.05
78229;BME280;74448;49.082;9.152;2024-01-25T09:09:26;100729.59;;;7.85;65.15
78229;BME280;74448;49.082;9.152;2024-01-25T09:11:53;100744.34;;;7.89;64.99
78229;BME280;74448;49.082;9.152;2024-01-25T09:14:20;100733.44;;;7.78;65.63
78229;BME280;74448;49.082;9.152;2024-01-25T09:16:48;100747.13;;;7.86;65.20
78229;BME280;74448;49.082;9.152;2024-01-25T09:19:14;100747.31;;;7.82;65.12
78229;BME280;74448;49.082;9.152;2024-01-25T09:21:42;100748.94;;;7.84;65.10
78229;BME280;74448;49.082;9.152;2024-01-25T09:24:09;100756.66;;;7.89;65.01
78229;BME280;74448;49.082;9.152;2024-01-25T09:26:36;100754.94;;;7.88;64.75
78229;BME280;74448;49.082;9.152;2024-01-25T09:29:03;100763.03;;;7.83;64.97
78229;BME280;74448;49.082;9.152;2024-01-25T09:31:29;100769.09;;;7.85;65.07
78229;BME280;74448;49.082;9.152;2024-01-25T09:33:57;100768.88;;;7.90;64.89
78229;BME280;74448;49.082;9.152;2024-01-25T09:36:23;100772.53;;;7.87;64.92
78229;BME280;74448;49.082;9.152;2024-01-25T09:38:50;100769.09;;;7.85;65.52
78229;BME280;74448;49.082;9.152;2024-01-25T09:41:17;100769.09;;;7.85;65.37
78229;BME280;74448;49.082;9.152;2024-01-25T09:43:43;100763.03;;;7.83;65.53
78229;BME280;74448;49.082;9.152;2024-01-25T09:46:13;100769.88;;;7.87;65.21
78229;BME280;74448;49.082;9.152;2024-01-25T09:48:42;100776.97;;;7.85;64.93
78229;BME280;74448;49.082;9.152;2024-01-25T09:51:12;100772.75;;;7.81;64.88
78229;BME280;74448;49.082;9.152;2024-01-25T09:53:40;100782.25;;;7.85;65.36
78229;BME280;74448;49.082;9.152;2024-01-25T09:56:10;100783.25;;;7.83;64.82
78229;BME280;74448;49.082;9.152;2024-01-25T09:58:39;100784.22;;;7.80;65.07
78229;BME280;74448;49.082;9.152;2024-01-25T10:01:10;100787.78;;;7.79;65.09
78229;BME280;74448;49.082;9.152;2024-01-25T10:03:38;100790.34;;;7.81;65.73
78229;BME280;74448;49.082;9.152;2024-01-25T10:06:06;100795.56;;;7.82;65.00
78229;BME280;74448;49.082;9.152;2024-01-25T10:08:34;100799.09;;;7.81;65.33
78229;BME280;74448;49.082;9.152;2024-01-25T10:11:01;100792.84;;;7.84;65.01
78229;BME280;74448;49.082;9.152;2024-01-25T10:13:28;100789.38;;;7.83;64.66
78229;BME280;74448;49.082;9.152;2024-01-25T10:15:56;100779.16;;;7.76;65.29
78229;BME280;74448;49.082;9.152;2024-01-25T10:18:24;100783.44;;;7.78;65.70
78229;BME280;74448;49.082;9.152;2024-01-25T10:20:56;100779.06;;;7.77;64.91
78229;BME280;74448;49.082;9.152;2024-01-25T10:23:23;100772.75;;;7.81;65.46
78229;BME280;74448;49.082;9.152;2024-01-25T10:25:52;100785.22;;;7.78;65.26
78229;BME280;74448;49.082;9.152;2024-01-25T10:28:19;100782.63;;;7.76;65.29
78229;BME280;74448;49.082;9.152;2024-01-25T10:30:46;100777.44;;;7.74;65.73
78229;BME280;74448;49.082;9.152;2024-01-25T10:33:13;100780.00;;;7.76;65.82
78229;BME280;74448;49.082;9.152;2024-01-25T10:35:41;100779.06;;;7.77;65.86
78229;BME280;74448;49.082;9.152;2024-01-25T10:38:12;100776.59;;;7.74;65.77
78229;BME280;74448;49.082;9.152;2024-01-25T10:40:40;100772.06;;;7.78;64.96
78229;BME280;74448;49.082;9.152;2024-01-25T10:43:10;100767.66;;;7.78;65.80
78229;BME280;74448;49.082;9.152;2024-01-25T10:45:37;100764.22;;;7.76;65.42
78229;BME280;74448;49.082;9.152;2024-01-25T10:48:04;100758.94;;;7.76;65.66
78229;BME280;74448;49.082;9.152;2024-01-25T10:50:31;100753.88;;;7.71;65.49
78229;BME280;74448;49.082;9.152;2024-01-25T10:52:58;100756.28;;;7.78;65.67
78229;BME280;74448;49.082;9.152;2024-01-25T10:55:25;100750.28;;;7.74;65.36
78229;BME280;74448;49.082;9.152;2024-01-25T10:57:52;100754.53;;;7.77;65.31
78229;BME280;74448;49.082;9.152;2024-01-25T11:00:19;100752.91;;;7.74;65.62
78229;BME280;74448;49.082;9.152;2024-01-25T11:02:47;100751.25;;;7.71;65.37
78229;BME280;74448;49.082;9.152;2024-01-25T11:05:16;100744.28;;;7.70;65.61
78229;BME280;74448;49.082;9.152;2024-01-25T11:07:48;100747.56;;;7.76;65.15
78229;BME280;74448;49.082;9.152;2024-01-25T11:10:21;100743.16;;;7.76;65.15
78229;BME280;74448;49.082;9.152;2024-01-25T11:12:55;100731.78;;;7.76;65.74
78229;BME280;74448;49.082;9.152;2024-01-25T11:15:33;100737.84;;;7.78;65.86
78229;BME280;74448;49.082;9.152;2024-01-25T11:18:02;100734.22;;;7.80;65.67
78229;BME280;74448;49.082;9.152;2024-01-25T11:20:30;100732.59;;;7.78;65.42
78229;BME280;74448;49.082;9.152;2024-01-25T11:23:05;100714.22;;;7.76;65.21
78229;BME280;74448;49.082;9.152;2024-01-25T11:25:35;100710.66;;;7.77;65.44
78229;BME280;74448;49.082;9.152;2024-01-25T11:28:03;100716.59;;;7.82;65.50
78229;BME280;74448;49.082;9.152;2024-01-25T11:30:33;100709.59;;;7.81;65.34
78229;BME280;74448;49.082;9.152;2024-01-25T11:33:03;100710.47;;;7.82;65.59
78229;BME280;74448;49.082;9.152;2024-01-25T11:35:30;100706.19;;;7.79;65.34
78229;BME280;74448;49.082;9.152;2024-01-25T11:37:58;100707.78;;;7.83;65.43
78229;BME280;74448;49.082;9.152;2024-01-25T11:40:24;100706.91;;;7.83;65.08
78229;BME280;74448;49.082;9.152;2024-01-25T11:42:51;100702.50;;;7.83;65.45
78229;BME280;74448;49.082;9.152;2024-01-25T11:45:18;100696.44;;;7.81;65.28
78229;BME280;74448;49.082;9.152;2024-01-25T11:47:45;100697.25;;;7.83;65.47
78229;BME280;74448;49.082;9.152;2024-01-25T11:50:12;100700.59;;;7.87;65.52
78229;BME280;74448;49.082;9.152;2024-01-25T11:52:39;100698.81;;;7.87;65.29
78229;BME280;74448;49.082;9.152;2024-01-25T11:55:08;100688.41;;;7.84;65.13
78229;BME280;74448;49.082;9.152;2024-01-25T11:57:40;100683.22;;;7.83;65.36
78229;BME280;74448;49.082;9.152;2024-01-25T12:00:10;100683.44;;;7.78;65.43
78229;BME280;74448;49.082;9.152;2024-01-25T12:02:39;100700.59;;;7.87;65.05
78229;BME280;74448;49.082;9.152;2024-01-25T12:05:06;100697.13;;;7.86;65.71
78229;BME280;74448;49.082;9.152;2024-01-25T12:07:35;100688.28;;;7.87;65.17
78229;BME280;74448;49.082;9.152;2024-01-25T12:10:04;100679.66;;;7.84;65.30
78229;BME280;74448;49.082;9.152;2024-01-25T12:12:31;100690.78;;;7.90;65.02
78229;BME280;74448;49.082;9.152;2024-01-25T12:14:59;100681.03;;;7.92;64.91
78229;BME280;74448;49.082;9.152;2024-01-25T12:17:29;100681.88;;;7.93;65.47
78229;BME280;74448;49.082;9.152;2024-01-25T12:19:57;100678.41;;;7.92;64.98
78229;BME280;74448;49.082;9.152;2024-01-25T12:22:26;100674.72;;;7.96;65.46
78229;BME280;74448;49.082;9.152;2024-01-25T12:24:54;100663.41;;;7.94;65.07
78229;BME280;74448;49.082;9.152;2024-01-25T12:27:26;100658.91;;;7.96;64.93
78229;BME280;74448;49.082;9.152;2024-01-25T12:29:53;100645.88;;;7.93;64.70
78229;BME280;74448;49.082;9.152;2024-01-25T12:32:20;100652.88;;;7.94;65.45
78229;BME280;74448;49.082;9.152;2024-01-25T12:34:57;100666.69;;;7.99;64.98
78229;BME280;74448;49.082;9.152;2024-01-25T12:37:24;100663.13;;;8.01;64.85
78229;BME280;74448;49.082;9.152;2024-01-25T12:39:52;100660.38;;;8.04;65.11
78229;BME280;74448;49.082;9.152;2024-01-25T12:42:20;100664.69;;;8.05;65.12
78229;BME280;74448;49.082;9.152;2024-01-25T12:44:47;100661.22;;;8.04;64.88
78229;BME280;74448;49.082;9.152;2024-01-25T12:47:15;100654.94;;;8.07;64.70
78229;BME280;74448;49.082;9.152;2024-01-25T12:49:42;100649.53;;;8.10;64.46
78229;BME280;74448;49.082;9.152;2024-01-25T12:52:14;100640.78;;;8.09;64.91
78229;BME280;74448;49.082;9.152;2024-01-25T12:54:41;100642.44;;;8.12;64.83
78229;BME280;74448;49.082;9.152;2024-01-25T12:57:08;100643.22;;;8.14;64.46
78229;BME280;74448;49.082;9.152;2024-01-25T12:59:35;100626.47;;;8.15;64.67
78229;BME280;74448;49.082;9.152;2024-01-25T13:02:04;100630.00;;;8.15;64.83